sensor_id;sensor_type;location;lat;lon;timestamp;pressure;altitude;pressure_sealevel;temperature;humidity
30554;BME280;17335;50.720;7.452;2022-09-03T00:00:29;98855.78;;;14.45;100.00
30554;BME280;17335;50.720;7.452;2022-09-03T00:03:03;98859.34;;;14.46;100.00
30554;BME280;17335;50.720;7.452;2022-09-03T00:05:38;98854.00;;;14.38;100.00
30554;BME280;17335;50.720;7.452;2022-09-03T00:10:44;98852.50;;;14.58;100.00
30554;BME280;17335;50.720;7.452;2022-09-03T00:13:20;98852.66;;;14.57;100.00
30554;BME280;17335;50.720;7.452;2022-09-03T00:15:50;98859.16;;;14.48;100.00
30554;BME280;17335;50.720;7.452;2022-09-03T00:18:20;98854.84;;;14.38;100.00
30554;BME280;17335;50.720;7.452;2022-09-03T00:20:55;98853.66;;;14.41;100.00
30554;BME280;17335;50.720;7.452;2022-09-03T00:23:27;98846.13;;;14.51;100.00
30554;BME280;17335;50.720;7.452;2022-09-03T00:29:02;98855.59;;;14.47;100.00
30554;BME280;17335;50.720;7.452;2022-09-03T00:31:38;98853.84;;;14.54;100.00
30554;BME280;17335;50.720;7.452;2022-09-03T00:34:20;98851.97;;;14.63;100.00
30554;BME280;17335;50.720;7.452;2022-09-03T00:36:49;98849.75;;;14.67;100.00
30554;BME280;17335;50.720;7.452;2022-09-03T00:56:03;98831.13;;;15.02;100.00
30554;BME280;17335;50.720;7.452;2022-09-03T00:58:51;98834.31;;;15.05;100.00
30554;BME280;17335;50.720;7.452;2022-09-03T01:01:39;98833.47;;;15.05;100.00
30554;BME280;17335;50.720;7.452;2022-09-03T01:04:55;98830.13;;;15.03;100.00
30554;BME280;17335;50.720;7.452;2022-09-03T01:15:17;98838.97;;;15.11;100.00
30554;BME280;17335;50.720;7.452;2022-09-03T01:20:40;98838.69;;;15.21;100.00
30554;BME280;17335;50.720;7.452;2022-09-03T01:26:39;98844.56;;;15.10;100.00
30554;BME280;17335;50.720;7.452;2022-09-03T01:34:39;98843.72;;;14.94;100.00
30554;BME280;17335;50.720;7.452;2022-09-03T01:45:18;98832.25;;;14.92;100.00
30554;BME280;17335;50.720;7.452;2022-09-03T01:50:50;98836.66;;;15.08;100.00
30554;BME280;17335;50.720;7.452;2022-09-03T01:59:36;98835.63;;;14.94;100.00
30554;BME280;17335;50.720;7.452;2022-09-03T02:02:16;98835.34;;;14.89;100.00
30554;BME280;17335;50.720;7.452;2022-09-03T02:07:34;98834.59;;;15.10;100.00
30554;BME280;17335;50.720;7.452;2022-09-03T02:10:04;98828.06;;;15.05;100.00
30554;BME280;17335;50.720;7.452;2022-09-03T02:12:32;98838.59;;;14.99;100.00
30554;BME280;17335;50.720;7.452;2022-09-03T02:15:06;98829.63;;;14.99;100.00
30554;BME280;17335;50.720;7.452;2022-09-03T02:17:36;98827.50;;;14.94;100.00
30554;BME280;17335;50.720;7.452;2022-09-03T02:20:07;98823.19;;;14.85;100.00
30554;BME280;17335;50.720;7.452;2022-09-03T02:22:41;98820.13;;;14.73;100.00
30554;BME280;17335;50.720;7.452;2022-09-03T02:25:08;98816.75;;;14.71;100.00
30554;BME280;17335;50.720;7.452;2022-09-03T02:27:37;98824.03;;;14.71;100.00
30554;BME280;17335;50.720;7.452;2022-09-03T02:30:05;98819.56;;;14.63;100.00
30554;BME280;17335;50.720;7.452;2022-09-03T02:32:32;98817.97;;;14.69;100.00
30554;BME280;17335;50.720;7.452;2022-09-03T02:34:58;98817.44;;;14.73;100.00
30554;BME280;17335;50.720;7.452;2022-09-03T02:37:25;98816.50;;;14.81;100.00
30554;BME280;17335;50.720;7.452;2022-09-03T02:39:52;98814.53;;;14.75;100.00
30554;BME280;17335;50.720;7.452;2022-09-03T02:42:19;98817.22;;;14.75;100.00
30554;BME280;17335;50.720;7.452;2022-09-03T02:44:59;98812.66;;;14.90;100.00
30554;BME280;17335;50.720;7.452;2022-09-03T02:47:30;98822.75;;;14.96;100.00
30554;BME280;17335;50.720;7.452;2022-09-03T02:49:58;98814.63;;;14.96;100.00
30554;BME280;17335;50.720;7.452;2022-09-03T02:52:25;98817.59;;;14.87;100.00
30554;BME280;17335;50.720;7.452;2022-09-03T02:54:51;98826.28;;;14.97;100.00
30554;BME280;17335;50.720;7.452;2022-09-03T02:57:18;98818.34;;;14.95;100.00
30554;BME280;17335;50.720;7.452;2022-09-03T02:59:53;98823.19;;;14.85;100.00
30554;BME280;17335;50.720;7.452;2022-09-03T03:02:19;98810.72;;;14.84;100.00
30554;BME280;17335;50.720;7.452;2022-09-03T03:04:46;98813.97;;;14.79;100.00
30554;BME280;17335;50.720;7.452;2022-09-03T03:07:13;98813.78;;;14.81;100.00
30554;BME280;17335;50.720;7.452;2022-09-03T03:09:39;98803.53;;;14.76;100.00
30554;BME280;17335;50.720;7.452;2022-09-03T03:12:06;98803.63;;;14.83;100.00
30554;BME280;17335;50.720;7.452;2022-09-03T03:14:34;98806.81;;;14.72;100.00
30554;BME280;17335;50.720;7.452;2022-09-03T03:17:00;98797.84;;;14.71;100.00
30554;BME280;17335;50.720;7.452;2022-09-03T03:19:27;98790.59;;;14.72;100.00
30554;BME280;17335;50.720;7.452;2022-09-03T03:21:54;98795.03;;;14.65;100.00
30554;BME280;17335;50.720;7.452;2022-09-03T03:24:21;98804.53;;;14.60;100.00
30554;BME280;17335;50.720;7.452;2022-09-03T03:26:48;98796.78;;;14.57;100.00
30554;BME280;17335;50.720;7.452;2022-09-03T03:29:16;98804.66;;;14.67;100.00
30554;BME280;17335;50.720;7.452;2022-09-03T03:31:43;98793.47;;;14.70;100.00
30554;BME280;17335;50.720;7.452;2022-09-03T03:34:11;98797.88;;;14.86;100.00
30554;BME280;17335;50.720;7.452;2022-09-03T03:36:37;98791.50;;;14.94;100.00
30554;BME280;17335;50.720;7.452;2022-09-03T03:39:04;98793.03;;;14.96;100.00
30554;BME280;17335;50.720;7.452;2022-09-03T03:41:33;98790.22;;;14.90;100.00
30554;BME280;17335;50.720;7.452;2022-09-03T03:44:03;98796.16;;;14.85;100.00
30554;BME280;17335;50.720;7.452;2022-09-03T03:46:36;98805.50;;;14.82;100.00
30554;BME280;17335;50.720;7.452;2022-09-03T03:49:03;98809.78;;;14.92;100.00
30554;BME280;17335;50.720;7.452;2022-09-03T03:51:33;98804.22;;;15.08;100.00
30554;BME280;17335;50.720;7.452;2022-09-03T03:53:59;98808.50;;;15.03;100.00
30554;BME280;17335;50.720;7.452;2022-09-03T03:56:31;98799.06;;;14.98;100.00
30554;BME280;17335;50.720;7.452;2022-09-03T03:58:58;98798.34;;;15.05;100.00
30554;BME280;17335;50.720;7.452;2022-09-03T04:01:26;98797.97;;;15.08;100.00
30554;BME280;17335;50.720;7.452;2022-09-03T04:03:54;98795.25;;;15.08;100.00
30554;BME280;17335;50.720;7.452;2022-09-03T04:06:22;98791.34;;;15.10;100.00
30554;BME280;17335;50.720;7.452;2022-09-03T04:08:49;98793.66;;;15.13;100.00
30554;BME280;17335;50.720;7.452;2022-09-03T04:11:18;98807.75;;;15.09;100.00
30554;BME280;17335;50.720;7.452;2022-09-03T04:13:45;98797.75;;;15.09;100.00
30554;BME280;17335;50.720;7.452;2022-09-03T04:16:17;98803.38;;;15.08;100.00
30554;BME280;17335;50.720;7.452;2022-09-03T04:18:44;98801.41;;;15.16;100.00
30554;BME280;17335;50.720;7.452;2022-09-03T04:21:13;98789.56;;;15.17;100.00
30554;BME280;17335;50.720;7.452;2022-09-03T04:23:42;98793.38;;;15.23;100.00
30554;BME280;17335;50.720;7.452;2022-09-03T04:26:13;98790.00;;;15.21;100.00
30554;BME280;17335;50.720;7.452;2022-09-03T04:28:40;98791.88;;;15.21;100.00
30554;BME280;17335;50.720;7.452;2022-09-03T04:31:10;98797.66;;;15.17;100.00
30554;BME280;17335;50.720;7.452;2022-09-03T04:33:38;98789.72;;;15.16;100.00
30554;BME280;17335;50.720;7.452;2022-09-03T04:36:16;98784.72;;;15.13;100.00
30554;BME280;17335;50.720;7.452;2022-09-03T04:38:44;98784.59;;;15.21;100.00
30554;BME280;17335;50.720;7.452;2022-09-03T04:41:14;98783.03;;;15.27;100.00
30554;BME280;17335;50.720;7.452;2022-09-03T04:43:41;98781.53;;;15.24;100.00
30554;BME280;17335;50.720;7.452;2022-09-03T04:46:10;98782.56;;;15.23;100.00
30554;BME280;17335;50.720;7.452;2022-09-03T04:48:47;98786.66;;;15.19;100.00
30554;BME280;17335;50.720;7.452;2022-09-03T04:51:16;98787.31;;;15.21;100.00
30554;BME280;17335;50.720;7.452;2022-09-03T04:53:44;98782.16;;;15.26;100.00
30554;BME280;17335;50.720;7.452;2022-09-03T04:56:19;98791.78;;;15.14;100.00
30554;BME280;17335;50.720;7.452;2022-09-03T04:58:47;98787.72;;;15.18;100.00
30554;BME280;17335;50.720;7.452;2022-09-03T05:01:20;98788.81;;;15.09;100.00
30554;BME280;17335;50.720;7.452;2022-09-03T05:03:48;98794.59;;;15.06;100.00
30554;BME280;17335;50.720;7.452;2022-09-03T05:06:18;98795.72;;;14.96;100.00
30554;BME280;17335;50.720;7.452;2022-09-03T05:08:49;98801.78;;;14.98;100.00
30554;BME280;17335;50.720;7.452;2022-09-03T05:11:16;98799.81;;;15.07;100.00
30554;BME280;17335;50.720;7.452;2022-09-03T05:13:47;98803.09;;;15.03;100.00
30554;BME280;17335;50.720;7.452;2022-09-03T05:16:14;98802.06;;;15.04;100.00
30554;BME280;17335;50.720;7.452;2022-09-03T05:18:41;98801.88;;;15.05;100.00
30554;BME280;17335;50.720;7.452;2022-09-03T05:21:10;98805.41;;;15.06;100.00
30554;BME280;17335;50.720;7.452;2022-09-03T05:23:42;98812.31;;;15.08;100.00
30554;BME280;17335;50.720;7.452;2022-09-03T05:26:14;98806.63;;;15.18;100.00
30554;BME280;17335;50.720;7.452;2022-09-03T05:28:43;98809.34;;;15.18;100.00
30554;BME280;17335;50.720;7.452;2022-09-03T05:31:15;98807.91;;;15.22;100.00
30554;BME280;17335;50.720;7.452;2022-09-03T05:33:48;98816.69;;;15.24;100.00
30554;BME280;17335;50.720;7.452;2022-09-03T05:36:16;98811.34;;;15.31;100.00
30554;BME280;17335;50.720;7.452;2022-09-03T05:38:45;98808.00;;;15.29;100.00
30554;BME280;17335;50.720;7.452;2022-09-03T05:41:13;98809.28;;;15.33;100.00
30554;BME280;17335;50.720;7.452;2022-09-03T05:43:41;98811.06;;;15.41;100.00
30554;BME280;17335;50.720;7.452;2022-09-03T05:46:10;98802.19;;;15.47;100.00
30554;BME280;17335;50.720;7.452;2022-09-03T05:48:38;98803.50;;;15.51;100.00
30554;BME280;17335;50.720;7.452;2022-09-03T05:51:08;98805.13;;;15.67;100.00
30554;BME280;17335;50.720;7.452;2022-09-03T05:53:37;98806.88;;;15.74;100.00
30554;BME280;17335;50.720;7.452;2022-09-03T05:56:06;98812.13;;;15.76;100.00
30554;BME280;17335;50.720;7.452;2022-09-03T05:58:36;98814.91;;;15.83;100.00
30554;BME280;17335;50.720;7.452;2022-09-03T06:01:15;98816.59;;;15.84;100.00
30554;BME280;17335;50.720;7.452;2022-09-03T06:03:43;98817.31;;;15.92;100.00
30554;BME280;17335;50.720;7.452;2022-09-03T06:06:12;98803.84;;;15.99;100.00
30554;BME280;17335;50.720;7.452;2022-09-03T06:08:39;98820.72;;;16.01;100.00
30554;BME280;17335;50.720;7.452;2022-09-03T06:11:07;98822.00;;;16.05;100.00
30554;BME280;17335;50.720;7.452;2022-09-03T06:13:34;98823.97;;;16.11;100.00
30554;BME280;17335;50.720;7.452;2022-09-03T06:16:06;98830.19;;;16.12;100.00
30554;BME280;17335;50.720;7.452;2022-09-03T06:18:32;98835.69;;;16.19;100.00
30554;BME280;17335;50.720;7.452;2022-09-03T06:21:05;98832.59;;;16.22;100.00
30554;BME280;17335;50.720;7.452;2022-09-03T06:23:33;98830.72;;;16.22;100.00
30554;BME280;17335;50.720;7.452;2022-09-03T06:26:10;98829.50;;;16.25;100.00
30554;BME280;17335;50.720;7.452;2022-09-03T06:28:39;98825.81;;;16.33;100.00
30554;BME280;17335;50.720;7.452;2022-09-03T06:31:08;98819.44;;;16.40;100.00
30554;BME280;17335;50.720;7.452;2022-09-03T06:33:36;98828.00;;;16.44;100.00
30554;BME280;17335;50.720;7.452;2022-09-03T06:36:05;98826.38;;;16.49;100.00
30554;BME280;17335;50.720;7.452;2022-09-03T06:38:35;98824.56;;;16.57;100.00
30554;BME280;17335;50.720;7.452;2022-09-03T06:41:11;98822.72;;;16.64;100.00
30554;BME280;17335;50.720;7.452;2022-09-03T06:43:40;98828.63;;;16.74;100.00
30554;BME280;17335;50.720;7.452;2022-09-03T06:46:10;98828.63;;;16.74;100.00
30554;BME280;17335;50.720;7.452;2022-09-03T06:48:38;98830.03;;;16.85;100.00
30554;BME280;17335;50.720;7.452;2022-09-03T06:53:36;98822.31;;;16.89;100.00
30554;BME280;17335;50.720;7.452;2022-09-03T06:56:05;98822.19;;;16.97;100.00
30554;BME280;17335;50.720;7.452;2022-09-03T06:58:35;98827.19;;;17.00;100.00
30554;BME280;17335;50.720;7.452;2022-09-03T07:01:09;98827.84;;;17.09;100.00
30554;BME280;17335;50.720;7.452;2022-09-03T07:03:37;98829.59;;;17.16;100.00
30554;BME280;17335;50.720;7.452;2022-09-03T07:06:09;98830.69;;;17.29;100.00
30554;BME280;17335;50.720;7.452;2022-09-03T07:08:36;98833.66;;;17.40;100.00
30554;BME280;17335;50.720;7.452;2022-09-03T07:11:05;98824.16;;;17.65;100.00
30554;BME280;17335;50.720;7.452;2022-09-03T07:13:39;98828.44;;;17.87;100.00
30554;BME280;17335;50.720;7.452;2022-09-03T07:16:12;98830.34;;;17.93;100.00
30554;BME280;17335;50.720;7.452;2022-09-03T07:18:39;98833.53;;;18.10;100.00
30554;BME280;17335;50.720;7.452;2022-09-03T07:21:09;98834.16;;;18.19;100.00
30554;BME280;17335;50.720;7.452;2022-09-03T07:23:38;98832.88;;;18.15;100.00
30554;BME280;17335;50.720;7.452;2022-09-03T07:26:17;98837.69;;;18.13;100.00
30554;BME280;17335;50.720;7.452;2022-09-03T07:28:45;98841.44;;;18.12;100.00
30554;BME280;17335;50.720;7.452;2022-09-03T07:31:16;98834.16;;;18.19;100.00
30554;BME280;17335;50.720;7.452;2022-09-03T07:33:45;98839.81;;;18.17;100.00
30554;BME280;17335;50.720;7.452;2022-09-03T07:36:16;98834.59;;;18.23;100.00
30554;BME280;17335;50.720;7.452;2022-09-03T07:38:44;98839.81;;;18.31;100.00
30554;BME280;17335;50.720;7.452;2022-09-03T07:41:13;98828.09;;;18.37;100.00
30554;BME280;17335;50.720;7.452;2022-09-03T07:43:54;98830.19;;;18.35;100.00
30554;BME280;17335;50.720;7.452;2022-09-03T07:46:24;98828.94;;;18.44;100.00
30554;BME280;17335;50.720;7.452;2022-09-03T07:48:55;98833.16;;;18.47;100.00
30554;BME280;17335;50.720;7.452;2022-09-03T07:51:24;98836.06;;;18.59;100.00
30554;BME280;17335;50.720;7.452;2022-09-03T07:53:54;98835.22;;;18.65;100.00
30554;BME280;17335;50.720;7.452;2022-09-03T07:56:21;98838.75;;;18.79;100.00
30554;BME280;17335;50.720;7.452;2022-09-03T07:58:49;98842.56;;;18.64;99.93
30554;BME280;17335;50.720;7.452;2022-09-03T08:01:18;98847.78;;;18.52;100.00
30554;BME280;17335;50.720;7.452;2022-09-03T08:03:47;98856.56;;;18.34;100.00
30554;BME280;17335;50.720;7.452;2022-09-03T08:06:15;98862.34;;;18.18;100.00
30554;BME280;17335;50.720;7.452;2022-09-03T08:08:42;98867.16;;;18.16;100.00
30554;BME280;17335;50.720;7.452;2022-09-03T08:11:16;98865.66;;;18.07;100.00
30554;BME280;17335;50.720;7.452;2022-09-03T08:13:48;98869.63;;;17.97;100.00
30554;BME280;17335;50.720;7.452;2022-09-03T08:16:16;98869.41;;;17.92;100.00
30554;BME280;17335;50.720;7.452;2022-09-03T08:18:46;98869.00;;;17.95;100.00
30554;BME280;17335;50.720;7.452;2022-09-03T08:21:17;98875.06;;;17.97;100.00
30554;BME280;17335;50.720;7.452;2022-09-03T08:23:48;98873.59;;;17.95;100.00
30554;BME280;17335;50.720;7.452;2022-09-03T08:26:17;98871.28;;;17.92;100.00
30554;BME280;17335;50.720;7.452;2022-09-03T08:28:44;98871.09;;;18.00;100.00
30554;BME280;17335;50.720;7.452;2022-09-03T08:31:18;98875.72;;;18.13;100.00
30554;BME280;17335;50.720;7.452;2022-09-03T08:33:47;98869.88;;;18.16;100.00
30554;BME280;17335;50.720;7.452;2022-09-03T08:38:45;98875.34;;;18.29;100.00
30554;BME280;17335;50.720;7.452;2022-09-03T08:41:27;98871.53;;;18.04;100.00
30554;BME280;17335;50.720;7.452;2022-09-03T08:46:56;98885.34;;;18.09;100.00
30554;BME280;17335;50.720;7.452;2022-09-03T08:52:20;98882.22;;;18.25;100.00
30554;BME280;17335;50.720;7.452;2022-09-03T08:54:51;98887.88;;;18.30;100.00
30554;BME280;17335;50.720;7.452;2022-09-03T08:57:21;98887.28;;;18.42;100.00
30554;BME280;17335;50.720;7.452;2022-09-03T08:59:51;98881.44;;;18.38;100.00
30554;BME280;17335;50.720;7.452;2022-09-03T09:05:02;98892.03;;;18.20;100.00
30554;BME280;17335;50.720;7.452;2022-09-03T09:08:02;98883.06;;;18.19;100.00
30554;BME280;17335;50.720;7.452;2022-09-03T09:10:44;98886.63;;;18.26;100.00
30554;BME280;17335;50.720;7.452;2022-09-03T09:21:28;98873.72;;;18.55;100.00
30554;BME280;17335;50.720;7.452;2022-09-03T09:24:01;98884.16;;;18.78;100.00
30554;BME280;17335;50.720;7.452;2022-09-03T09:26:32;98873.31;;;18.98;100.00
30554;BME280;17335;50.720;7.452;2022-09-03T09:29:05;98873.72;;;19.15;100.00
30554;BME280;17335;50.720;7.452;2022-09-03T09:31:37;98876.19;;;19.30;100.00
30554;BME280;17335;50.720;7.452;2022-09-03T09:34:06;98873.72;;;19.08;100.00
30554;BME280;17335;50.720;7.452;2022-09-03T09:36:41;98873.91;;;19.14;100.00
30554;BME280;17335;50.720;7.452;2022-09-03T09:39:10;98870.75;;;19.17;100.00
30554;BME280;17335;50.720;7.452;2022-09-03T09:41:37;98866.19;;;19.10;100.00
30554;BME280;17335;50.720;7.452;2022-09-03T09:44:04;98868.22;;;19.28;100.00
30554;BME280;17335;50.720;7.452;2022-09-03T09:46:36;98869.50;;;19.26;100.00
30554;BME280;17335;50.720;7.452;2022-09-03T09:49:28;98874.06;;;19.32;100.00
30554;BME280;17335;50.720;7.452;2022-09-03T09:52:09;98872.81;;;19.35;100.00
30554;BME280;17335;50.720;7.452;2022-09-03T09:54:38;98863.53;;;19.56;100.00
30554;BME280;17335;50.720;7.452;2022-09-03T09:57:13;98864.81;;;19.60;100.00
30554;BME280;17335;50.720;7.452;2022-09-03T09:59:43;98857.84;;;19.77;100.00
30554;BME280;17335;50.720;7.452;2022-09-03T10:02:25;98867.38;;;20.00;100.00
30554;BME280;17335;50.720;7.452;2022-09-03T10:04:55;98865.53;;;20.26;100.00
30554;BME280;17335;50.720;7.452;2022-09-03T10:07:27;98869.34;;;20.50;100.00
30554;BME280;17335;50.720;7.452;2022-09-03T10:10:04;98864.84;;;20.94;100.00
30554;BME280;17335;50.720;7.452;2022-09-03T10:12:33;98866.41;;;21.27;100.00
30554;BME280;17335;50.720;7.452;2022-09-03T10:21:00;98874.34;;;21.10;100.00
30554;BME280;17335;50.720;7.452;2022-09-03T10:23:39;98875.25;;;21.22;100.00
30554;BME280;17335;50.720;7.452;2022-09-03T10:26:13;98878.16;;;21.46;100.00
30554;BME280;17335;50.720;7.452;2022-09-03T10:28:44;98877.72;;;21.49;100.00
30554;BME280;17335;50.720;7.452;2022-09-03T10:39:21;98894.09;;;21.30;100.00
30554;BME280;17335;50.720;7.452;2022-09-03T10:50:13;98897.16;;;21.59;100.00
30554;BME280;17335;50.720;7.452;2022-09-03T10:56:00;98884.28;;;21.97;100.00
30554;BME280;17335;50.720;7.452;2022-09-03T11:01:17;98869.03;;;22.38;100.00
30554;BME280;17335;50.720;7.452;2022-09-03T11:06:49;98873.41;;;22.81;100.00
30554;BME280;17335;50.720;7.452;2022-09-03T11:09:35;98868.78;;;23.05;99.37
30554;BME280;17335;50.720;7.452;2022-09-03T11:14:38;98873.53;;;22.98;100.00
30554;BME280;17335;50.720;7.452;2022-09-03T11:17:14;98873.34;;;23.11;100.00
30554;BME280;17335;50.720;7.452;2022-09-03T11:19:49;98865.59;;;23.08;100.00
30554;BME280;17335;50.720;7.452;2022-09-03T11:22:19;98859.63;;;22.99;100.00
30554;BME280;17335;50.720;7.452;2022-09-03T11:24:53;98876.13;;;22.69;100.00
30554;BME280;17335;50.720;7.452;2022-09-03T11:29:56;98871.22;;;21.99;100.00
30554;BME280;17335;50.720;7.452;2022-09-03T11:32:50;98869.81;;;21.78;100.00
30554;BME280;17335;50.720;7.452;2022-09-03T11:40:59;98849.28;;;23.13;100.00
30554;BME280;17335;50.720;7.452;2022-09-03T11:43:29;98843.09;;;23.30;100.00
30554;BME280;17335;50.720;7.452;2022-09-03T11:48:42;98840.06;;;23.43;100.00
30554;BME280;17335;50.720;7.452;2022-09-03T11:51:21;98837.56;;;23.53;100.00
30554;BME280;17335;50.720;7.452;2022-09-03T11:56:49;98842.50;;;23.16;100.00
30554;BME280;17335;50.720;7.452;2022-09-03T11:59:19;98835.09;;;23.04;100.00
30554;BME280;17335;50.720;7.452;2022-09-03T12:02:26;98822.72;;;23.37;100.00
30554;BME280;17335;50.720;7.452;2022-09-03T12:05:01;98837.66;;;23.58;100.00
30554;BME280;17335;50.720;7.452;2022-09-03T12:13:43;98832.34;;;24.21;100.00
30554;BME280;17335;50.720;7.452;2022-09-03T12:16:22;98839.06;;;23.85;100.00
30554;BME280;17335;50.720;7.452;2022-09-03T12:18:55;98828.28;;;23.95;100.00
30554;BME280;17335;50.720;7.452;2022-09-03T12:21:26;98836.75;;;23.93;100.00
30554;BME280;17335;50.720;7.452;2022-09-03T12:23:53;98826.84;;;24.21;100.00
30554;BME280;17335;50.720;7.452;2022-09-03T12:26:25;98828.72;;;24.04;99.78
30554;BME280;17335;50.720;7.452;2022-09-03T12:28:55;98825.97;;;23.63;100.00
30554;BME280;17335;50.720;7.452;2022-09-03T12:34:01;98830.84;;;23.73;100.00
30554;BME280;17335;50.720;7.452;2022-09-03T12:36:39;98826.91;;;23.69;100.00
30554;BME280;17335;50.720;7.452;2022-09-03T12:39:13;98827.59;;;24.17;100.00
30554;BME280;17335;50.720;7.452;2022-09-03T12:42:05;98818.22;;;24.29;100.00
30554;BME280;17335;50.720;7.452;2022-09-03T12:49:55;98818.06;;;24.53;100.00
30554;BME280;17335;50.720;7.452;2022-09-03T12:52:29;98817.53;;;24.68;100.00
30554;BME280;17335;50.720;7.452;2022-09-03T12:57:34;98810.88;;;25.20;98.87
30554;BME280;17335;50.720;7.452;2022-09-03T13:00:05;98807.28;;;25.19;96.61
30554;BME280;17335;50.720;7.452;2022-09-03T13:05:16;98804.88;;;25.23;96.44
30554;BME280;17335;50.720;7.452;2022-09-03T13:07:48;98805.94;;;25.22;97.38
30554;BME280;17335;50.720;7.452;2022-09-03T13:10:29;98802.88;;;25.35;100.00
30554;BME280;17335;50.720;7.452;2022-09-03T13:13:02;98795.91;;;25.11;96.18
30554;BME280;17335;50.720;7.452;2022-09-03T13:15:32;98797.50;;;25.06;98.54
30554;BME280;17335;50.720;7.452;2022-09-03T13:18:18;98793.28;;;24.99;99.38
30554;BME280;17335;50.720;7.452;2022-09-03T13:21:11;98791.38;;;25.38;98.74
30554;BME280;17335;50.720;7.452;2022-09-03T13:24:02;98794.94;;;25.61;95.54
30554;BME280;17335;50.720;7.452;2022-09-03T13:27:02;98793.28;;;25.60;92.99
30554;BME280;17335;50.720;7.452;2022-09-03T13:32:46;98792.91;;;24.56;100.00
30554;BME280;17335;50.720;7.452;2022-09-03T13:41:11;98792.94;;;25.56;97.94
30554;BME280;17335;50.720;7.452;2022-09-03T13:44:01;98801.25;;;25.61;95.34
30554;BME280;17335;50.720;7.452;2022-09-03T13:49:20;98802.38;;;25.21;97.50
30554;BME280;17335;50.720;7.452;2022-09-03T13:52:15;98788.81;;;25.54;97.01
30554;BME280;17335;50.720;7.452;2022-09-03T13:54:52;98792.19;;;25.61;95.61
30554;BME280;17335;50.720;7.452;2022-09-03T13:57:39;98798.97;;;25.75;94.15
30554;BME280;17335;50.720;7.452;2022-09-03T14:00:23;98794.59;;;25.79;92.62
30554;BME280;17335;50.720;7.452;2022-09-03T14:11:45;98785.94;;;25.66;95.67
30554;BME280;17335;50.720;7.452;2022-09-03T14:25:04;98779.19;;;25.78;97.88
30554;BME280;17335;50.720;7.452;2022-09-03T14:27:35;98783.03;;;25.77;95.14
30554;BME280;17335;50.720;7.452;2022-09-03T14:30:18;98782.41;;;25.70;98.40
30554;BME280;17335;50.720;7.452;2022-09-03T14:35:48;98785.00;;;25.16;97.55
30554;BME280;17335;50.720;7.452;2022-09-03T14:41:03;98790.78;;;24.97;99.20
30554;BME280;17335;50.720;7.452;2022-09-03T14:46:40;98786.09;;;24.76;100.00
30554;BME280;17335;50.720;7.452;2022-09-03T14:51:57;98792.13;;;25.34;96.81
30554;BME280;17335;50.720;7.452;2022-09-03T15:03:02;98800.25;;;25.45;99.35
30554;BME280;17335;50.720;7.452;2022-09-03T15:08:41;98781.25;;;26.15;94.68
30554;BME280;17335;50.720;7.452;2022-09-03T15:11:16;98778.84;;;26.24;94.26
30554;BME280;17335;50.720;7.452;2022-09-03T15:13:49;98783.97;;;26.43;91.78
30554;BME280;17335;50.720;7.452;2022-09-03T15:24:40;98799.34;;;25.62;97.07
30554;BME280;17335;50.720;7.452;2022-09-03T15:29:51;98800.78;;;24.86;100.00
30554;BME280;17335;50.720;7.452;2022-09-03T15:41:24;98813.34;;;25.38;100.00
30554;BME280;17335;50.720;7.452;2022-09-03T15:43:58;98814.13;;;25.56;100.00
30554;BME280;17335;50.720;7.452;2022-09-03T15:49:02;98809.53;;;25.39;97.77
30554;BME280;17335;50.720;7.452;2022-09-03T15:51:40;98819.22;;;25.08;98.51
30554;BME280;17335;50.720;7.452;2022-09-03T15:57:10;98823.53;;;24.53;100.00
30554;BME280;17335;50.720;7.452;2022-09-03T16:05:06;98829.25;;;24.18;100.00
30554;BME280;17335;50.720;7.452;2022-09-03T16:11:23;98860.88;;;23.68;100.00
30554;BME280;17335;50.720;7.452;2022-09-03T16:16:29;98864.25;;;22.75;100.00
30554;BME280;17335;50.720;7.452;2022-09-03T16:22:27;98880.94;;;22.32;100.00
30554;BME280;17335;50.720;7.452;2022-09-03T16:24:59;98891.97;;;22.06;100.00
30554;BME280;17335;50.720;7.452;2022-09-03T16:27:37;98893.22;;;21.73;100.00
30554;BME280;17335;50.720;7.452;2022-09-03T16:30:11;98894.16;;;21.24;100.00
30554;BME280;17335;50.720;7.452;2022-09-03T16:35:18;98903.97;;;20.49;100.00
30554;BME280;17335;50.720;7.452;2022-09-03T16:38:02;98900.13;;;20.25;100.00
30554;BME280;17335;50.720;7.452;2022-09-03T16:40:35;98910.75;;;20.01;100.00
30554;BME280;17335;50.720;7.452;2022-09-03T16:46:24;98907.91;;;19.63;100.00
30554;BME280;17335;50.720;7.452;2022-09-03T16:49:32;98904.59;;;19.47;100.00
30554;BME280;17335;50.720;7.452;2022-09-03T16:55:27;98931.69;;;19.02;100.00
30554;BME280;17335;50.720;7.452;2022-09-03T17:00:52;98942.75;;;18.81;100.00
30554;BME280;17335;50.720;7.452;2022-09-03T17:06:13;98950.50;;;18.84;100.00
30554;BME280;17335;50.720;7.452;2022-09-03T17:11:54;98961.78;;;18.81;100.00
30554;BME280;17335;50.720;7.452;2022-09-03T17:25:16;98976.63;;;18.78;100.00
30554;BME280;17335;50.720;7.452;2022-09-03T17:31:14;98976.59;;;18.71;100.00
30554;BME280;17335;50.720;7.452;2022-09-03T17:39:24;98982.00;;;18.51;100.00
30554;BME280;17335;50.720;7.452;2022-09-03T17:42:01;98977.38;;;18.39;100.00
30554;BME280;17335;50.720;7.452;2022-09-03T17:47:37;98977.13;;;18.27;100.00
30554;BME280;17335;50.720;7.452;2022-09-03T17:50:22;98982.94;;;18.24;100.00
30554;BME280;17335;50.720;7.452;2022-09-03T17:52:56;98985.25;;;18.20;100.00
30554;BME280;17335;50.720;7.452;2022-09-03T17:55:32;98983.59;;;18.19;100.00
30554;BME280;17335;50.720;7.452;2022-09-03T17:58:12;98988.78;;;18.14;100.00
30554;BME280;17335;50.720;7.452;2022-09-03T18:01:02;98994.81;;;18.09;100.00
30554;BME280;17335;50.720;7.452;2022-09-03T18:03:43;98987.66;;;18.02;100.00